sensor_id;sensor_type;location;lat;lon;timestamp;P1;durP1;ratioP1;P2;durP2;ratioP2
74670;SDS011;63196;39.564;2.628;2023-08-30T00:01:31;0.00;;;0.00;;
74670;SDS011;63196;39.564;2.628;2023-08-30T00:03:56;0.00;;;0.00;;
74670;SDS011;63196;39.564;2.628;2023-08-30T00:06:22;0.00;;;0.00;;
74670;SDS011;63196;39.564;2.628;2023-08-30T00:08:47;0.00;;;0.00;;
74670;SDS011;63196;39.564;2.628;2023-08-30T00:11:13;0.00;;;0.00;;
74670;SDS011;63196;39.564;2.628;2023-08-30T00:13:39;0.10;;;0.10;;
74670;SDS011;63196;39.564;2.628;2023-08-30T00:16:06;0.00;;;0.00;;
74670;SDS011;63196;39.564;2.628;2023-08-30T00:18:31;0.10;;;0.10;;
74670;SDS011;63196;39.564;2.628;2023-08-30T00:20:57;0.00;;;0.00;;
74670;SDS011;63196;39.564;2.628;2023-08-30T00:23:22;0.00;;;0.00;;
74670;SDS011;63196;39.564;2.628;2023-08-30T00:25:48;0.10;;;0.10;;
74670;SDS011;63196;39.564;2.628;2023-08-30T00:28:13;0.10;;;0.10;;
74670;SDS011;63196;39.564;2.628;2023-08-30T00:30:39;0.00;;;0.00;;
74670;SDS011;63196;39.564;2.628;2023-08-30T00:33:05;0.00;;;0.00;;
74670;SDS011;63196;39.564;2.628;2023-08-30T00:35:31;0.10;;;0.10;;
74670;SDS011;63196;39.564;2.628;2023-08-30T00:37:56;0.10;;;0.10;;
74670;SDS011;63196;39.564;2.628;2023-08-30T00:40:24;0.00;;;0.00;;
74670;SDS011;63196;39.564;2.628;2023-08-30T00:42:50;0.00;;;0.00;;
74670;SDS011;63196;39.564;2.628;2023-08-30T00:45:16;0.00;;;0.00;;
74670;SDS011;63196;39.564;2.628;2023-08-30T00:47:41;0.00;;;0.00;;
74670;SDS011;63196;39.564;2.628;2023-08-30T00:50:07;0.00;;;0.00;;
74670;SDS011;63196;39.564;2.628;2023-08-30T00:52:32;0.10;;;0.10;;
74670;SDS011;63196;39.564;2.628;2023-08-30T00:54:58;0.00;;;0.00;;
74670;SDS011;63196;39.564;2.628;2023-08-30T00:57:24;0.10;;;0.10;;
74670;SDS011;63196;39.564;2.628;2023-08-30T00:59:50;0.00;;;0.00;;
74670;SDS011;63196;39.564;2.628;2023-08-30T01:02:16;0.10;;;0.10;;
74670;SDS011;63196;39.564;2.628;2023-08-30T01:04:41;0.00;;;0.00;;
74670;SDS011;63196;39.564;2.628;2023-08-30T01:07:07;0.00;;;0.00;;
74670;SDS011;63196;39.564;2.628;2023-08-30T01:09:33;0.00;;;0.00;;
74670;SDS011;63196;39.564;2.628;2023-08-30T01:12:17;0.00;;;0.00;;
74670;SDS011;63196;39.564;2.628;2023-08-30T01:17:10;0.00;;;0.00;;
74670;SDS011;63196;39.564;2.628;2023-08-30T01:24:45;0.00;;;0.00;;
74670;SDS011;63196;39.564;2.628;2023-08-30T01:27:13;0.00;;;0.00;;
74670;SDS011;63196;39.564;2.628;2023-08-30T01:29:39;0.00;;;0.00;;
74670;SDS011;63196;39.564;2.628;2023-08-30T01:32:06;0.00;;;0.00;;
74670;SDS011;63196;39.564;2.628;2023-08-30T01:34:32;0.00;;;0.00;;
74670;SDS011;63196;39.564;2.628;2023-08-30T01:36:59;0.00;;;0.00;;
74670;SDS011;63196;39.564;2.628;2023-08-30T01:39:25;0.10;;;0.10;;
74670;SDS011;63196;39.564;2.628;2023-08-30T01:41:51;0.00;;;0.00;;
74670;SDS011;63196;39.564;2.628;2023-08-30T01:44:20;0.00;;;0.00;;
74670;SDS011;63196;39.564;2.628;2023-08-30T01:46:46;0.00;;;0.00;;
74670;SDS011;63196;39.564;2.628;2023-08-30T01:49:12;0.00;;;0.00;;
74670;SDS011;63196;39.564;2.628;2023-08-30T01:51:38;0.00;;;0.00;;
74670;SDS011;63196;39.564;2.628;2023-08-30T01:54:04;0.00;;;0.00;;
74670;SDS011;63196;39.564;2.628;2023-08-30T01:56:30;0.00;;;0.00;;
74670;SDS011;63196;39.564;2.628;2023-08-30T01:58:55;0.10;;;0.10;;
74670;SDS011;63196;39.564;2.628;2023-08-30T02:01:21;0.00;;;0.00;;
74670;SDS011;63196;39.564;2.628;2023-08-30T02:03:47;0.10;;;0.10;;
74670;SDS011;63196;39.564;2.628;2023-08-30T02:06:17;0.00;;;0.00;;
74670;SDS011;63196;39.564;2.628;2023-08-30T02:08:47;0.10;;;0.10;;
74670;SDS011;63196;39.564;2.628;2023-08-30T02:11:17;0.00;;;0.00;;
74670;SDS011;63196;39.564;2.628;2023-08-30T02:13:44;0.00;;;0.00;;
74670;SDS011;63196;39.564;2.628;2023-08-30T02:16:11;0.00;;;0.00;;
74670;SDS011;63196;39.564;2.628;2023-08-30T02:18:38;0.00;;;0.00;;
74670;SDS011;63196;39.564;2.628;2023-08-30T02:21:03;0.00;;;0.00;;
74670;SDS011;63196;39.564;2.628;2023-08-30T02:23:29;0.00;;;0.00;;
74670;SDS011;63196;39.564;2.628;2023-08-30T02:25:54;0.00;;;0.00;;
74670;SDS011;63196;39.564;2.628;2023-08-30T02:28:20;0.00;;;0.00;;
74670;SDS011;63196;39.564;2.628;2023-08-30T02:30:46;0.00;;;0.00;;
74670;SDS011;63196;39.564;2.628;2023-08-30T02:33:11;0.00;;;0.00;;
74670;SDS011;63196;39.564;2.628;2023-08-30T02:35:37;0.00;;;0.00;;
74670;SDS011;63196;39.564;2.628;2023-08-30T02:38:02;0.10;;;0.10;;
74670;SDS011;63196;39.564;2.628;2023-08-30T02:40:30;0.00;;;0.00;;
74670;SDS011;63196;39.564;2.628;2023-08-30T02:42:56;0.00;;;0.00;;
74670;SDS011;63196;39.564;2.628;2023-08-30T02:45:21;0.10;;;0.10;;
74670;SDS011;63196;39.564;2.628;2023-08-30T02:47:47;0.00;;;0.00;;
74670;SDS011;63196;39.564;2.628;2023-08-30T02:50:13;0.10;;;0.00;;
74670;SDS011;63196;39.564;2.628;2023-08-30T02:52:38;0.00;;;0.00;;
74670;SDS011;63196;39.564;2.628;2023-08-30T02:55:04;0.10;;;0.10;;
74670;SDS011;63196;39.564;2.628;2023-08-30T02:57:29;0.00;;;0.00;;
74670;SDS011;63196;39.564;2.628;2023-08-30T02:59:54;0.10;;;0.10;;
74670;SDS011;63196;39.564;2.628;2023-08-30T03:02:20;0.00;;;0.00;;
74670;SDS011;63196;39.564;2.628;2023-08-30T03:04:45;0.00;;;0.00;;
74670;SDS011;63196;39.564;2.628;2023-08-30T03:07:10;0.00;;;0.00;;
74670;SDS011;63196;39.564;2.628;2023-08-30T03:09:36;0.00;;;0.00;;
74670;SDS011;63196;39.564;2.628;2023-08-30T03:12:03;0.00;;;0.00;;
74670;SDS011;63196;39.564;2.628;2023-08-30T03:14:28;0.00;;;0.00;;
74670;SDS011;63196;39.564;2.628;2023-08-30T03:16:54;0.00;;;0.00;;
74670;SDS011;63196;39.564;2.628;2023-08-30T03:19:19;0.00;;;0.00;;
74670;SDS011;63196;39.564;2.628;2023-08-30T03:21:44;0.00;;;0.00;;
74670;SDS011;63196;39.564;2.628;2023-08-30T03:24:10;0.00;;;0.00;;
74670;SDS011;63196;39.564;2.628;2023-08-30T03:26:35;0.00;;;0.00;;
74670;SDS011;63196;39.564;2.628;2023-08-30T03:29:00;0.00;;;0.00;;
74670;SDS011;63196;39.564;2.628;2023-08-30T03:31:26;0.00;;;0.00;;
74670;SDS011;63196;39.564;2.628;2023-08-30T03:33:51;0.00;;;0.00;;
74670;SDS011;63196;39.564;2.628;2023-08-30T03:36:17;0.10;;;0.10;;
74670;SDS011;63196;39.564;2.628;2023-08-30T03:38:43;0.00;;;0.00;;
74670;SDS011;63196;39.564;2.628;2023-08-30T03:41:09;0.00;;;0.00;;
74670;SDS011;63196;39.564;2.628;2023-08-30T03:43:35;0.00;;;0.00;;
74670;SDS011;63196;39.564;2.628;2023-08-30T03:46:00;0.10;;;0.00;;
74670;SDS011;63196;39.564;2.628;2023-08-30T03:48:26;0.00;;;0.00;;
74670;SDS011;63196;39.564;2.628;2023-08-30T03:50:52;0.10;;;0.10;;
74670;SDS011;63196;39.564;2.628;2023-08-30T03:53:17;0.10;;;0.10;;
74670;SDS011;63196;39.564;2.628;2023-08-30T03:55:43;0.10;;;0.10;;
74670;SDS011;63196;39.564;2.628;2023-08-30T03:58:08;0.00;;;0.00;;
74670;SDS011;63196;39.564;2.628;2023-08-30T04:00:37;0.00;;;0.00;;
74670;SDS011;63196;39.564;2.628;2023-08-30T04:03:03;0.00;;;0.00;;
74670;SDS011;63196;39.564;2.628;2023-08-30T04:05:32;0.00;;;0.00;;
74670;SDS011;63196;39.564;2.628;2023-08-30T04:07:58;0.00;;;0.00;;
74670;SDS011;63196;39.564;2.628;2023-08-30T04:10:24;0.10;;;0.10;;
74670;SDS011;63196;39.564;2.628;2023-08-30T04:12:49;0.00;;;0.00;;
74670;SDS011;63196;39.564;2.628;2023-08-30T04:15:15;0.00;;;0.00;;
74670;SDS011;63196;39.564;2.628;2023-08-30T04:17:40;0.00;;;0.00;;
74670;SDS011;63196;39.564;2.628;2023-08-30T04:20:06;0.00;;;0.00;;
74670;SDS011;63196;39.564;2.628;2023-08-30T04:22:31;0.00;;;0.00;;
74670;SDS011;63196;39.564;2.628;2023-08-30T04:24:59;0.10;;;0.10;;
74670;SDS011;63196;39.564;2.628;2023-08-30T04:27:25;0.00;;;0.00;;
74670;SDS011;63196;39.564;2.628;2023-08-30T04:29:52;0.00;;;0.00;;
74670;SDS011;63196;39.564;2.628;2023-08-30T04:32:17;0.00;;;0.00;;
74670;SDS011;63196;39.564;2.628;2023-08-30T04:34:42;0.10;;;0.10;;
74670;SDS011;63196;39.564;2.628;2023-08-30T04:37:08;0.00;;;0.00;;
74670;SDS011;63196;39.564;2.628;2023-08-30T04:39:33;0.00;;;0.00;;
74670;SDS011;63196;39.564;2.628;2023-08-30T04:41:58;0.00;;;0.00;;
74670;SDS011;63196;39.564;2.628;2023-08-30T04:44:24;0.00;;;0.00;;
74670;SDS011;63196;39.564;2.628;2023-08-30T04:46:53;0.00;;;0.00;;
74670;SDS011;63196;39.564;2.628;2023-08-30T04:49:18;0.10;;;0.10;;
74670;SDS011;63196;39.564;2.628;2023-08-30T04:51:44;0.00;;;0.00;;
74670;SDS011;63196;39.564;2.628;2023-08-30T04:54:09;0.00;;;0.00;;
74670;SDS011;63196;39.564;2.628;2023-08-30T04:56:35;0.00;;;0.00;;
74670;SDS011;63196;39.564;2.628;2023-08-30T04:59:00;0.00;;;0.00;;
74670;SDS011;63196;39.564;2.628;2023-08-30T05:01:29;0.10;;;0.10;;
74670;SDS011;63196;39.564;2.628;2023-08-30T05:03:54;0.00;;;0.00;;
74670;SDS011;63196;39.564;2.628;2023-08-30T05:06:20;0.10;;;0.10;;
74670;SDS011;63196;39.564;2.628;2023-08-30T05:08:45;0.00;;;0.00;;
74670;SDS011;63196;39.564;2.628;2023-08-30T05:11:10;0.00;;;0.00;;
74670;SDS011;63196;39.564;2.628;2023-08-30T05:13:36;0.00;;;0.00;;
74670;SDS011;63196;39.564;2.628;2023-08-30T05:16:01;0.00;;;0.00;;
74670;SDS011;63196;39.564;2.628;2023-08-30T05:18:26;0.00;;;0.00;;
74670;SDS011;63196;39.564;2.628;2023-08-30T05:20:52;0.00;;;0.00;;
74670;SDS011;63196;39.564;2.628;2023-08-30T05:23:17;0.00;;;0.00;;
74670;SDS011;63196;39.564;2.628;2023-08-30T05:25:43;0.00;;;0.00;;
74670;SDS011;63196;39.564;2.628;2023-08-30T05:28:08;0.10;;;0.10;;
74670;SDS011;63196;39.564;2.628;2023-08-30T05:30:34;0.00;;;0.00;;
74670;SDS011;63196;39.564;2.628;2023-08-30T05:32:59;0.00;;;0.00;;
74670;SDS011;63196;39.564;2.628;2023-08-30T05:35:24;0.00;;;0.00;;
74670;SDS011;63196;39.564;2.628;2023-08-30T05:37:50;0.00;;;0.00;;
74670;SDS011;63196;39.564;2.628;2023-08-30T05:40:16;0.00;;;0.00;;
74670;SDS011;63196;39.564;2.628;2023-08-30T05:42:42;0.00;;;0.00;;
74670;SDS011;63196;39.564;2.628;2023-08-30T05:45:07;0.00;;;0.00;;
74670;SDS011;63196;39.564;2.628;2023-08-30T05:47:33;0.00;;;0.00;;
74670;SDS011;63196;39.564;2.628;2023-08-30T05:49:58;0.00;;;0.00;;
74670;SDS011;63196;39.564;2.628;2023-08-30T05:52:24;0.00;;;0.00;;
74670;SDS011;63196;39.564;2.628;2023-08-30T05:54:50;0.00;;;0.00;;
74670;SDS011;63196;39.564;2.628;2023-08-30T05:57:15;0.00;;;0.00;;
74670;SDS011;63196;39.564;2.628;2023-08-30T05:59:41;0.00;;;0.00;;
74670;SDS011;63196;39.564;2.628;2023-08-30T06:02:06;0.00;;;0.00;;
74670;SDS011;63196;39.564;2.628;2023-08-30T06:04:31;0.00;;;0.00;;
74670;SDS011;63196;39.564;2.628;2023-08-30T06:06:57;0.00;;;0.00;;
74670;SDS011;63196;39.564;2.628;2023-08-30T06:09:22;0.00;;;0.00;;
74670;SDS011;63196;39.564;2.628;2023-08-30T06:11:48;0.10;;;0.10;;
74670;SDS011;63196;39.564;2.628;2023-08-30T06:14:13;0.00;;;0.00;;
74670;SDS011;63196;39.564;2.628;2023-08-30T06:16:39;0.00;;;0.00;;
74670;SDS011;63196;39.564;2.628;2023-08-30T06:19:09;0.20;;;0.00;;
74670;SDS011;63196;39.564;2.628;2023-08-30T06:21:34;0.00;;;0.00;;
74670;SDS011;63196;39.564;2.628;2023-08-30T06:24:00;0.00;;;0.00;;
74670;SDS011;63196;39.564;2.628;2023-08-30T06:26:25;0.00;;;0.00;;
74670;SDS011;63196;39.564;2.628;2023-08-30T06:28:50;0.00;;;0.00;;
74670;SDS011;63196;39.564;2.628;2023-08-30T06:31:16;0.00;;;0.00;;
74670;SDS011;63196;39.564;2.628;2023-08-30T06:33:41;0.00;;;0.00;;
74670;SDS011;63196;39.564;2.628;2023-08-30T06:36:07;0.00;;;0.00;;
74670;SDS011;63196;39.564;2.628;2023-08-30T06:38:32;0.00;;;0.00;;
74670;SDS011;63196;39.564;2.628;2023-08-30T06:40:58;0.10;;;0.10;;
74670;SDS011;63196;39.564;2.628;2023-08-30T06:43:23;0.00;;;0.00;;
74670;SDS011;63196;39.564;2.628;2023-08-30T06:45:49;0.00;;;0.00;;
74670;SDS011;63196;39.564;2.628;2023-08-30T06:48:14;0.10;;;0.10;;
74670;SDS011;63196;39.564;2.628;2023-08-30T06:50:39;0.00;;;0.00;;
74670;SDS011;63196;39.564;2.628;2023-08-30T06:53:05;0.00;;;0.00;;
74670;SDS011;63196;39.564;2.628;2023-08-30T06:55:30;0.00;;;0.00;;
74670;SDS011;63196;39.564;2.628;2023-08-30T06:57:57;0.00;;;0.00;;
74670;SDS011;63196;39.564;2.628;2023-08-30T07:00:22;0.10;;;0.10;;
74670;SDS011;63196;39.564;2.628;2023-08-30T07:02:48;0.10;;;0.10;;
74670;SDS011;63196;39.564;2.628;2023-08-30T07:05:13;0.00;;;0.00;;
74670;SDS011;63196;39.564;2.628;2023-08-30T07:07:39;0.10;;;0.10;;
74670;SDS011;63196;39.564;2.628;2023-08-30T07:10:04;0.00;;;0.00;;
74670;SDS011;63196;39.564;2.628;2023-08-30T07:12:30;0.00;;;0.00;;
74670;SDS011;63196;39.564;2.628;2023-08-30T07:14:55;0.00;;;0.00;;
74670;SDS011;63196;39.564;2.628;2023-08-30T07:17:21;0.00;;;0.00;;
74670;SDS011;63196;39.564;2.628;2023-08-30T07:19:46;0.00;;;0.00;;
74670;SDS011;63196;39.564;2.628;2023-08-30T07:22:11;0.00;;;0.00;;
74670;SDS011;63196;39.564;2.628;2023-08-30T07:24:37;0.10;;;0.10;;
74670;SDS011;63196;39.564;2.628;2023-08-30T07:27:02;0.00;;;0.00;;
74670;SDS011;63196;39.564;2.628;2023-08-30T07:29:28;0.00;;;0.00;;
74670;SDS011;63196;39.564;2.628;2023-08-30T07:31:53;0.00;;;0.00;;
74670;SDS011;63196;39.564;2.628;2023-08-30T07:34:19;0.10;;;0.00;;
74670;SDS011;63196;39.564;2.628;2023-08-30T07:36:45;0.00;;;0.00;;
74670;SDS011;63196;39.564;2.628;2023-08-30T07:39:10;0.00;;;0.00;;
74670;SDS011;63196;39.564;2.628;2023-08-30T07:41:36;0.00;;;0.00;;
74670;SDS011;63196;39.564;2.628;2023-08-30T07:44:01;0.10;;;0.10;;
74670;SDS011;63196;39.564;2.628;2023-08-30T07:46:26;0.00;;;0.00;;
74670;SDS011;63196;39.564;2.628;2023-08-30T07:48:52;0.00;;;0.00;;
74670;SDS011;63196;39.564;2.628;2023-08-30T07:51:17;0.00;;;0.00;;
74670;SDS011;63196;39.564;2.628;2023-08-30T07:53:43;0.00;;;0.00;;
74670;SDS011;63196;39.564;2.628;2023-08-30T07:56:08;0.00;;;0.00;;
74670;SDS011;63196;39.564;2.628;2023-08-30T07:58:34;0.00;;;0.00;;
74670;SDS011;63196;39.564;2.628;2023-08-30T08:00:59;0.00;;;0.00;;
74670;SDS011;63196;39.564;2.628;2023-08-30T08:03:24;0.10;;;0.10;;
74670;SDS011;63196;39.564;2.628;2023-08-30T08:05:50;0.00;;;0.00;;
74670;SDS011;63196;39.564;2.628;2023-08-30T08:08:15;0.00;;;0.00;;
74670;SDS011;63196;39.564;2.628;2023-08-30T08:10:42;0.00;;;0.00;;
74670;SDS011;63196;39.564;2.628;2023-08-30T08:13:07;0.00;;;0.00;;
74670;SDS011;63196;39.564;2.628;2023-08-30T08:15:37;0.00;;;0.00;;
74670;SDS011;63196;39.564;2.628;2023-08-30T08:18:03;0.10;;;0.10;;
74670;SDS011;63196;39.564;2.628;2023-08-30T08:20:28;0.00;;;0.00;;
74670;SDS011;63196;39.564;2.628;2023-08-30T08:22:54;0.00;;;0.00;;
74670;SDS011;63196;39.564;2.628;2023-08-30T08:25:19;0.00;;;0.00;;
74670;SDS011;63196;39.564;2.628;2023-08-30T08:27:46;0.00;;;0.00;;
74670;SDS011;63196;39.564;2.628;2023-08-30T08:30:11;0.00;;;0.00;;
74670;SDS011;63196;39.564;2.628;2023-08-30T08:32:37;0.20;;;0.20;;
74670;SDS011;63196;39.564;2.628;2023-08-30T08:35:02;0.00;;;0.00;;
74670;SDS011;63196;39.564;2.628;2023-08-30T08:37:28;0.00;;;0.00;;
74670;SDS011;63196;39.564;2.628;2023-08-30T08:39:53;0.10;;;0.10;;
74670;SDS011;63196;39.564;2.628;2023-08-30T08:42:19;0.00;;;0.00;;
74670;SDS011;63196;39.564;2.628;2023-08-30T08:44:49;0.00;;;0.00;;
74670;SDS011;63196;39.564;2.628;2023-08-30T08:47:19;0.00;;;0.00;;
74670;SDS011;63196;39.564;2.628;2023-08-30T08:49:45;0.00;;;0.00;;
74670;SDS011;63196;39.564;2.628;2023-08-30T08:52:11;0.10;;;0.00;;
74670;SDS011;63196;39.564;2.628;2023-08-30T08:54:39;0.10;;;0.00;;
74670;SDS011;63196;39.564;2.628;2023-08-30T08:57:06;0.00;;;0.00;;
74670;SDS011;63196;39.564;2.628;2023-08-30T08:59:32;0.20;;;0.10;;
74670;SDS011;63196;39.564;2.628;2023-08-30T09:01:58;0.00;;;0.00;;
74670;SDS011;63196;39.564;2.628;2023-08-30T09:04:24;0.00;;;0.00;;
74670;SDS011;63196;39.564;2.628;2023-08-30T09:06:50;0.30;;;0.30;;
74670;SDS011;63196;39.564;2.628;2023-08-30T09:09:15;0.10;;;0.10;;
74670;SDS011;63196;39.564;2.628;2023-08-30T09:11:40;0.10;;;0.10;;
74670;SDS011;63196;39.564;2.628;2023-08-30T09:14:06;0.00;;;0.00;;
74670;SDS011;63196;39.564;2.628;2023-08-30T09:16:31;0.40;;;0.40;;
74670;SDS011;63196;39.564;2.628;2023-08-30T09:18:57;0.10;;;0.10;;
74670;SDS011;63196;39.564;2.628;2023-08-30T09:21:23;0.10;;;0.10;;
74670;SDS011;63196;39.564;2.628;2023-08-30T09:23:56;0.00;;;0.00;;
74670;SDS011;63196;39.564;2.628;2023-08-30T09:26:21;0.00;;;0.00;;
74670;SDS011;63196;39.564;2.628;2023-08-30T09:28:46;0.00;;;0.00;;
74670;SDS011;63196;39.564;2.628;2023-08-30T09:31:16;0.00;;;0.00;;
74670;SDS011;63196;39.564;2.628;2023-08-30T09:33:44;0.00;;;0.00;;
74670;SDS011;63196;39.564;2.628;2023-08-30T09:36:10;0.10;;;0.10;;
74670;SDS011;63196;39.564;2.628;2023-08-30T09:38:39;0.00;;;0.00;;
74670;SDS011;63196;39.564;2.628;2023-08-30T09:41:04;0.00;;;0.00;;
74670;SDS011;63196;39.564;2.628;2023-08-30T09:43:31;0.10;;;0.10;;
74670;SDS011;63196;39.564;2.628;2023-08-30T09:45:57;0.10;;;0.10;;
74670;SDS011;63196;39.564;2.628;2023-08-30T09:48:23;0.00;;;0.00;;
74670;SDS011;63196;39.564;2.628;2023-08-30T09:50:53;0.00;;;0.00;;
74670;SDS011;63196;39.564;2.628;2023-08-30T09:53:19;0.00;;;0.00;;
74670;SDS011;63196;39.564;2.628;2023-08-30T09:55:46;0.10;;;0.10;;
74670;SDS011;63196;39.564;2.628;2023-08-30T09:58:12;0.10;;;0.10;;
74670;SDS011;63196;39.564;2.628;2023-08-30T10:00:38;0.00;;;0.00;;
74670;SDS011;63196;39.564;2.628;2023-08-30T10:03:03;0.20;;;0.20;;
74670;SDS011;63196;39.564;2.628;2023-08-30T10:05:29;0.10;;;0.10;;
74670;SDS011;63196;39.564;2.628;2023-08-30T10:07:56;0.20;;;0.20;;
74670;SDS011;63196;39.564;2.628;2023-08-30T10:10:24;0.10;;;0.10;;
74670;SDS011;63196;39.564;2.628;2023-08-30T10:12:50;0.00;;;0.00;;
74670;SDS011;63196;39.564;2.628;2023-08-30T10:15:16;0.10;;;0.10;;
74670;SDS011;63196;39.564;2.628;2023-08-30T10:17:45;0.20;;;0.20;;
74670;SDS011;63196;39.564;2.628;2023-08-30T10:20:11;0.30;;;0.30;;
74670;SDS011;63196;39.564;2.628;2023-08-30T10:22:37;0.20;;;0.20;;
74670;SDS011;63196;39.564;2.628;2023-08-30T10:25:06;1.00;;;0.60;;
74670;SDS011;63196;39.564;2.628;2023-08-30T10:27:33;0.20;;;0.20;;
74670;SDS011;63196;39.564;2.628;2023-08-30T10:30:00;0.30;;;0.30;;
74670;SDS011;63196;39.564;2.628;2023-08-30T10:32:26;0.30;;;0.30;;
74670;SDS011;63196;39.564;2.628;2023-08-30T10:34:51;0.30;;;0.30;;
74670;SDS011;63196;39.564;2.628;2023-08-30T10:37:24;0.30;;;0.30;;
74670;SDS011;63196;39.564;2.628;2023-08-30T10:39:51;0.10;;;0.10;;
74670;SDS011;63196;39.564;2.628;2023-08-30T10:42:16;0.30;;;0.30;;
74670;SDS011;63196;39.564;2.628;2023-08-30T10:44:48;0.10;;;0.10;;
74670;SDS011;63196;39.564;2.628;2023-08-30T10:50:07;0.10;;;0.10;;
74670;SDS011;63196;39.564;2.628;2023-08-30T10:52:33;0.10;;;0.10;;
74670;SDS011;63196;39.564;2.628;2023-08-30T10:57:31;0.10;;;0.10;;
74670;SDS011;63196;39.564;2.628;2023-08-30T11:02:30;0.10;;;0.10;;
74670;SDS011;63196;39.564;2.628;2023-08-30T11:04:57;0.10;;;0.10;;
74670;SDS011;63196;39.564;2.628;2023-08-30T11:07:24;0.20;;;0.20;;
74670;SDS011;63196;39.564;2.628;2023-08-30T11:09:50;0.10;;;0.10;;
74670;SDS011;63196;39.564;2.628;2023-08-30T11:12:17;0.00;;;0.00;;
74670;SDS011;63196;39.564;2.628;2023-08-30T11:17:11;0.00;;;0.00;;
74670;SDS011;63196;39.564;2.628;2023-08-30T11:19:36;0.10;;;0.10;;
74670;SDS011;63196;39.564;2.628;2023-08-30T11:22:02;0.10;;;0.10;;
74670;SDS011;63196;39.564;2.628;2023-08-30T11:24:28;0.00;;;0.00;;
74670;SDS011;63196;39.564;2.628;2023-08-30T11:26:53;0.40;;;0.40;;
74670;SDS011;63196;39.564;2.628;2023-08-30T11:29:19;0.20;;;0.20;;
74670;SDS011;63196;39.564;2.628;2023-08-30T11:31:44;0.30;;;0.30;;
74670;SDS011;63196;39.564;2.628;2023-08-30T11:34:10;0.20;;;0.20;;
74670;SDS011;63196;39.564;2.628;2023-08-30T11:36:36;0.30;;;0.30;;
74670;SDS011;63196;39.564;2.628;2023-08-30T11:39:02;0.30;;;0.30;;
74670;SDS011;63196;39.564;2.628;2023-08-30T11:41:28;0.30;;;0.30;;
74670;SDS011;63196;39.564;2.628;2023-08-30T11:43:54;0.40;;;0.40;;
74670;SDS011;63196;39.564;2.628;2023-08-30T11:46:20;0.40;;;0.40;;
74670;SDS011;63196;39.564;2.628;2023-08-30T11:48:47;0.40;;;0.40;;
74670;SDS011;63196;39.564;2.628;2023-08-30T11:51:12;0.30;;;0.30;;
74670;SDS011;63196;39.564;2.628;2023-08-30T11:53:38;0.30;;;0.30;;
74670;SDS011;63196;39.564;2.628;2023-08-30T11:56:07;0.50;;;0.40;;
74670;SDS011;63196;39.564;2.628;2023-08-30T11:58:33;0.20;;;0.20;;
74670;SDS011;63196;39.564;2.628;2023-08-30T12:00:59;0.10;;;0.10;;
74670;SDS011;63196;39.564;2.628;2023-08-30T12:03:27;0.00;;;0.00;;
74670;SDS011;63196;39.564;2.628;2023-08-30T12:05:53;0.00;;;0.00;;
74670;SDS011;63196;39.564;2.628;2023-08-30T12:10:45;0.00;;;0.00;;
74670;SDS011;63196;39.564;2.628;2023-08-30T12:15:45;0.00;;;0.00;;
74670;SDS011;63196;39.564;2.628;2023-08-30T12:18:11;0.10;;;0.10;;
74670;SDS011;63196;39.564;2.628;2023-08-30T12:20:36;0.20;;;0.20;;
74670;SDS011;63196;39.564;2.628;2023-08-30T12:23:02;0.50;;;0.50;;
74670;SDS011;63196;39.564;2.628;2023-08-30T12:25:28;0.20;;;0.20;;
74670;SDS011;63196;39.564;2.628;2023-08-30T12:27:55;0.30;;;0.30;;
74670;SDS011;63196;39.564;2.628;2023-08-30T12:30:21;0.20;;;0.20;;
74670;SDS011;63196;39.564;2.628;2023-08-30T12:32:47;0.40;;;0.40;;
74670;SDS011;63196;39.564;2.628;2023-08-30T12:35:12;0.40;;;0.40;;
74670;SDS011;63196;39.564;2.628;2023-08-30T12:37:37;0.50;;;0.40;;
74670;SDS011;63196;39.564;2.628;2023-08-30T12:40:03;0.60;;;0.60;;
74670;SDS011;63196;39.564;2.628;2023-08-30T12:42:29;0.40;;;0.40;;
74670;SDS011;63196;39.564;2.628;2023-08-30T12:44:54;0.30;;;0.30;;
74670;SDS011;63196;39.564;2.628;2023-08-30T12:47:19;0.50;;;0.50;;
74670;SDS011;63196;39.564;2.628;2023-08-30T12:49:46;0.70;;;0.60;;
74670;SDS011;63196;39.564;2.628;2023-08-30T12:52:11;1.10;;;0.60;;
74670;SDS011;63196;39.564;2.628;2023-08-30T12:54:36;1.50;;;0.80;;
74670;SDS011;63196;39.564;2.628;2023-08-30T12:57:02;1.80;;;1.10;;
74670;SDS011;63196;39.564;2.628;2023-08-30T12:59:28;1.80;;;1.00;;
74670;SDS011;63196;39.564;2.628;2023-08-30T13:01:53;1.80;;;1.00;;
74670;SDS011;63196;39.564;2.628;2023-08-30T13:04:18;1.90;;;1.00;;
74670;SDS011;63196;39.564;2.628;2023-08-30T13:06:44;2.00;;;1.10;;
74670;SDS011;63196;39.564;2.628;2023-08-30T13:09:09;2.10;;;1.10;;
74670;SDS011;63196;39.564;2.628;2023-08-30T13:11:34;2.60;;;2.10;;
74670;SDS011;63196;39.564;2.628;2023-08-30T13:14:00;2.10;;;1.40;;
74670;SDS011;63196;39.564;2.628;2023-08-30T13:16:25;2.10;;;1.20;;
74670;SDS011;63196;39.564;2.628;2023-08-30T13:18:50;2.10;;;1.30;;
74670;SDS011;63196;39.564;2.628;2023-08-30T13:21:16;2.10;;;1.20;;
74670;SDS011;63196;39.564;2.628;2023-08-30T13:23:41;2.00;;;1.20;;
74670;SDS011;63196;39.564;2.628;2023-08-30T13:26:07;2.20;;;1.40;;
74670;SDS011;63196;39.564;2.628;2023-08-30T13:28:32;2.10;;;1.20;;
74670;SDS011;63196;39.564;2.628;2023-08-30T13:30:59;2.20;;;1.50;;
74670;SDS011;63196;39.564;2.628;2023-08-30T13:33:24;2.30;;;1.40;;
74670;SDS011;63196;39.564;2.628;2023-08-30T13:35:49;2.20;;;1.30;;
74670;SDS011;63196;39.564;2.628;2023-08-30T13:38:18;2.20;;;1.60;;
74670;SDS011;63196;39.564;2.628;2023-08-30T13:40:44;2.10;;;1.30;;
74670;SDS011;63196;39.564;2.628;2023-08-30T13:43:09;2.10;;;1.30;;
74670;SDS011;63196;39.564;2.628;2023-08-30T13:45:35;2.00;;;1.40;;
74670;SDS011;63196;39.564;2.628;2023-08-30T13:48:00;2.00;;;1.10;;
74670;SDS011;63196;39.564;2.628;2023-08-30T13:50:26;2.00;;;1.10;;
74670;SDS011;63196;39.564;2.628;2023-08-30T13:52:55;1.90;;;1.10;;
74670;SDS011;63196;39.564;2.628;2023-08-30T13:55:21;2.00;;;1.00;;
74670;SDS011;63196;39.564;2.628;2023-08-30T13:57:46;1.70;;;1.00;;
74670;SDS011;63196;39.564;2.628;2023-08-30T14:00:12;1.90;;;1.20;;
74670;SDS011;63196;39.564;2.628;2023-08-30T14:02:38;1.80;;;1.00;;
74670;SDS011;63196;39.564;2.628;2023-08-30T14:05:03;1.90;;;1.10;;
74670;SDS011;63196;39.564;2.628;2023-08-30T14:07:29;1.70;;;0.90;;
74670;SDS011;63196;39.564;2.628;2023-08-30T14:09:54;1.60;;;0.90;;
74670;SDS011;63196;39.564;2.628;2023-08-30T14:12:19;2.00;;;1.20;;
74670;SDS011;63196;39.564;2.628;2023-08-30T14:14:45;2.00;;;1.00;;
74670;SDS011;63196;39.564;2.628;2023-08-30T14:17:10;1.60;;;0.80;;
74670;SDS011;63196;39.564;2.628;2023-08-30T14:19:37;1.80;;;1.00;;
74670;SDS011;63196;39.564;2.628;2023-08-30T14:22:02;1.70;;;1.10;;
74670;SDS011;63196;39.564;2.628;2023-08-30T14:24:29;1.70;;;1.00;;
74670;SDS011;63196;39.564;2.628;2023-08-30T14:26:54;1.80;;;0.90;;
74670;SDS011;63196;39.564;2.628;2023-08-30T14:29:20;2.10;;;1.30;;
74670;SDS011;63196;39.564;2.628;2023-08-30T14:31:45;1.30;;;0.60;;
74670;SDS011;63196;39.564;2.628;2023-08-30T14:34:11;0.90;;;0.50;;
74670;SDS011;63196;39.564;2.628;2023-08-30T14:36:36;1.20;;;0.70;;
74670;SDS011;63196;39.564;2.628;2023-08-30T14:39:01;0.80;;;0.50;;
74670;SDS011;63196;39.564;2.628;2023-08-30T14:41:28;0.60;;;0.50;;
74670;SDS011;63196;39.564;2.628;2023-08-30T14:43:54;0.80;;;0.60;;
74670;SDS011;63196;39.564;2.628;2023-08-30T14:46:19;0.90;;;0.60;;
74670;SDS011;63196;39.564;2.628;2023-08-30T14:48:45;1.90;;;1.00;;
74670;SDS011;63196;39.564;2.628;2023-08-30T14:51:10;1.10;;;0.70;;
74670;SDS011;63196;39.564;2.628;2023-08-30T14:53:36;0.60;;;0.50;;
74670;SDS011;63196;39.564;2.628;2023-08-30T14:56:02;0.50;;;0.50;;
74670;SDS011;63196;39.564;2.628;2023-08-30T14:58:32;0.40;;;0.40;;
74670;SDS011;63196;39.564;2.628;2023-08-30T15:00:57;0.50;;;0.40;;
74670;SDS011;63196;39.564;2.628;2023-08-30T15:03:22;0.30;;;0.30;;